sensor_id;sensor_type;location;lat;lon;timestamp;P1;durP1;ratioP1;P2;durP2;ratioP2
48100;SDS011;33878;47.442;18.916;2022-07-10T00:01:27;1.08;;;0.60;;
48100;SDS011;33878;47.442;18.916;2022-07-10T00:04:13;0.85;;;0.60;;
48100;SDS011;33878;47.442;18.916;2022-07-10T00:07:00;1.45;;;0.65;;
48100;SDS011;33878;47.442;18.916;2022-07-10T00:09:48;0.70;;;0.50;;
48100;SDS011;33878;47.442;18.916;2022-07-10T00:12:34;1.77;;;0.60;;
48100;SDS011;33878;47.442;18.916;2022-07-10T00:15:21;1.33;;;0.75;;
48100;SDS011;33878;47.442;18.916;2022-07-10T00:18:07;1.77;;;0.60;;
48100;SDS011;33878;47.442;18.916;2022-07-10T00:20:53;1.35;;;0.60;;
48100;SDS011;33878;47.442;18.916;2022-07-10T00:23:40;3.33;;;0.70;;
48100;SDS011;33878;47.442;18.916;2022-07-10T00:26:27;3.53;;;0.77;;
48100;SDS011;33878;47.442;18.916;2022-07-10T00:29:13;2.17;;;0.60;;
48100;SDS011;33878;47.442;18.916;2022-07-10T00:32:00;1.25;;;0.70;;
48100;SDS011;33878;47.442;18.916;2022-07-10T00:34:47;1.33;;;0.70;;
48100;SDS011;33878;47.442;18.916;2022-07-10T00:37:33;2.80;;;0.85;;
48100;SDS011;33878;47.442;18.916;2022-07-10T00:40:19;2.25;;;0.70;;
48100;SDS011;33878;47.442;18.916;2022-07-10T00:43:08;1.50;;;0.80;;
48100;SDS011;33878;47.442;18.916;2022-07-10T00:45:55;3.37;;;0.90;;
48100;SDS011;33878;47.442;18.916;2022-07-10T00:48:41;1.95;;;0.95;;
48100;SDS011;33878;47.442;18.916;2022-07-10T00:51:28;2.00;;;0.80;;
48100;SDS011;33878;47.442;18.916;2022-07-10T00:54:16;2.22;;;0.60;;
48100;SDS011;33878;47.442;18.916;2022-07-10T00:57:03;0.75;;;0.60;;
48100;SDS011;33878;47.442;18.916;2022-07-10T00:59:51;2.80;;;0.80;;
48100;SDS011;33878;47.442;18.916;2022-07-10T01:02:41;1.83;;;0.95;;
48100;SDS011;33878;47.442;18.916;2022-07-10T01:05:29;1.30;;;0.65;;
48100;SDS011;33878;47.442;18.916;2022-07-10T01:08:15;0.75;;;0.70;;
48100;SDS011;33878;47.442;18.916;2022-07-10T01:11:01;1.87;;;0.95;;
48100;SDS011;33878;47.442;18.916;2022-07-10T01:13:47;2.75;;;0.90;;
48100;SDS011;33878;47.442;18.916;2022-07-10T01:16:34;1.50;;;0.88;;
48100;SDS011;33878;47.442;18.916;2022-07-10T01:19:20;4.20;;;0.90;;
48100;SDS011;33878;47.442;18.916;2022-07-10T01:22:07;1.70;;;0.80;;
48100;SDS011;33878;47.442;18.916;2022-07-10T01:24:53;0.82;;;0.70;;
48100;SDS011;33878;47.442;18.916;2022-07-10T01:27:40;1.80;;;1.00;;
48100;SDS011;33878;47.442;18.916;2022-07-10T01:30:27;1.65;;;0.95;;
48100;SDS011;33878;47.442;18.916;2022-07-10T01:33:14;1.35;;;0.90;;
48100;SDS011;33878;47.442;18.916;2022-07-10T01:36:00;2.62;;;0.70;;
48100;SDS011;33878;47.442;18.916;2022-07-10T01:38:47;1.58;;;0.95;;
48100;SDS011;33878;47.442;18.916;2022-07-10T01:41:33;2.92;;;0.93;;
48100;SDS011;33878;47.442;18.916;2022-07-10T01:44:20;2.20;;;1.00;;
48100;SDS011;33878;47.442;18.916;2022-07-10T01:47:06;3.80;;;1.60;;
48100;SDS011;33878;47.442;18.916;2022-07-10T01:49:53;1.92;;;1.00;;
48100;SDS011;33878;47.442;18.916;2022-07-10T01:52:39;2.08;;;0.90;;
48100;SDS011;33878;47.442;18.916;2022-07-10T01:55:26;3.42;;;1.08;;
48100;SDS011;33878;47.442;18.916;2022-07-10T01:58:12;2.30;;;1.10;;
48100;SDS011;33878;47.442;18.916;2022-07-10T02:00:59;2.05;;;1.00;;
48100;SDS011;33878;47.442;18.916;2022-07-10T02:03:46;1.20;;;0.80;;
48100;SDS011;33878;47.442;18.916;2022-07-10T02:06:51;1.95;;;1.15;;
48100;SDS011;33878;47.442;18.916;2022-07-10T02:09:38;1.60;;;0.93;;
48100;SDS011;33878;47.442;18.916;2022-07-10T02:12:25;1.23;;;0.90;;
48100;SDS011;33878;47.442;18.916;2022-07-10T02:15:11;3.62;;;1.27;;
48100;SDS011;33878;47.442;18.916;2022-07-10T02:17:57;3.45;;;1.15;;
48100;SDS011;33878;47.442;18.916;2022-07-10T02:20:44;2.90;;;1.30;;
48100;SDS011;33878;47.442;18.916;2022-07-10T02:23:30;1.73;;;0.98;;
48100;SDS011;33878;47.442;18.916;2022-07-10T02:26:17;2.03;;;1.10;;
48100;SDS011;33878;47.442;18.916;2022-07-10T02:29:03;1.92;;;1.00;;
48100;SDS011;33878;47.442;18.916;2022-07-10T02:31:49;2.75;;;1.73;;
48100;SDS011;33878;47.442;18.916;2022-07-10T02:34:36;3.28;;;1.30;;
48100;SDS011;33878;47.442;18.916;2022-07-10T02:37:22;1.75;;;1.35;;
48100;SDS011;33878;47.442;18.916;2022-07-10T02:40:08;1.70;;;1.00;;
48100;SDS011;33878;47.442;18.916;2022-07-10T02:42:55;1.62;;;1.27;;
48100;SDS011;33878;47.442;18.916;2022-07-10T02:45:41;1.45;;;1.10;;
48100;SDS011;33878;47.442;18.916;2022-07-10T02:48:32;2.08;;;1.30;;
48100;SDS011;33878;47.442;18.916;2022-07-10T02:51:18;1.60;;;1.25;;
48100;SDS011;33878;47.442;18.916;2022-07-10T02:54:04;3.75;;;1.30;;
48100;SDS011;33878;47.442;18.916;2022-07-10T02:56:51;1.95;;;1.20;;
48100;SDS011;33878;47.442;18.916;2022-07-10T02:59:37;2.95;;;1.48;;
48100;SDS011;33878;47.442;18.916;2022-07-10T03:02:23;2.15;;;1.40;;
48100;SDS011;33878;47.442;18.916;2022-07-10T03:05:10;2.30;;;1.45;;
48100;SDS011;33878;47.442;18.916;2022-07-10T03:07:56;1.75;;;1.30;;
48100;SDS011;33878;47.442;18.916;2022-07-10T03:10:42;3.67;;;1.60;;
48100;SDS011;33878;47.442;18.916;2022-07-10T03:13:28;2.97;;;1.67;;
48100;SDS011;33878;47.442;18.916;2022-07-10T03:16:14;2.33;;;1.42;;
48100;SDS011;33878;47.442;18.916;2022-07-10T03:19:01;2.65;;;1.62;;
48100;SDS011;33878;47.442;18.916;2022-07-10T03:21:47;3.15;;;1.42;;
48100;SDS011;33878;47.442;18.916;2022-07-10T03:24:33;2.53;;;1.62;;
48100;SDS011;33878;47.442;18.916;2022-07-10T03:27:19;2.55;;;1.50;;
48100;SDS011;33878;47.442;18.916;2022-07-10T03:30:06;2.78;;;1.58;;
48100;SDS011;33878;47.442;18.916;2022-07-10T03:32:53;3.05;;;1.67;;
48100;SDS011;33878;47.442;18.916;2022-07-10T03:35:39;4.32;;;1.73;;
48100;SDS011;33878;47.442;18.916;2022-07-10T03:38:25;2.53;;;1.50;;
48100;SDS011;33878;47.442;18.916;2022-07-10T03:41:15;3.17;;;1.83;;
48100;SDS011;33878;47.442;18.916;2022-07-10T03:44:01;3.12;;;1.70;;
48100;SDS011;33878;47.442;18.916;2022-07-10T03:46:47;1.77;;;1.30;;
48100;SDS011;33878;47.442;18.916;2022-07-10T03:49:34;3.78;;;1.90;;
48100;SDS011;33878;47.442;18.916;2022-07-10T03:52:20;3.67;;;1.73;;
48100;SDS011;33878;47.442;18.916;2022-07-10T03:55:07;2.95;;;1.92;;
48100;SDS011;33878;47.442;18.916;2022-07-10T03:57:53;2.72;;;1.70;;
48100;SDS011;33878;47.442;18.916;2022-07-10T04:00:40;2.78;;;1.80;;
48100;SDS011;33878;47.442;18.916;2022-07-10T04:03:28;2.85;;;1.85;;
48100;SDS011;33878;47.442;18.916;2022-07-10T04:06:14;3.47;;;1.60;;
48100;SDS011;33878;47.442;18.916;2022-07-10T04:09:01;2.80;;;1.73;;
48100;SDS011;33878;47.442;18.916;2022-07-10T04:11:47;2.53;;;1.55;;
48100;SDS011;33878;47.442;18.916;2022-07-10T04:14:33;3.05;;;1.87;;
48100;SDS011;33878;47.442;18.916;2022-07-10T04:17:20;2.50;;;1.70;;
48100;SDS011;33878;47.442;18.916;2022-07-10T04:20:06;3.72;;;1.62;;
48100;SDS011;33878;47.442;18.916;2022-07-10T04:22:53;5.45;;;2.03;;
48100;SDS011;33878;47.442;18.916;2022-07-10T04:25:40;4.10;;;2.00;;
48100;SDS011;33878;47.442;18.916;2022-07-10T04:28:26;3.17;;;2.10;;
48100;SDS011;33878;47.442;18.916;2022-07-10T04:31:13;3.20;;;2.17;;
48100;SDS011;33878;47.442;18.916;2022-07-10T04:33:59;3.00;;;1.90;;
48100;SDS011;33878;47.442;18.916;2022-07-10T04:36:46;3.87;;;1.92;;
48100;SDS011;33878;47.442;18.916;2022-07-10T04:39:32;3.78;;;2.08;;
48100;SDS011;33878;47.442;18.916;2022-07-10T04:42:20;4.32;;;1.90;;
48100;SDS011;33878;47.442;18.916;2022-07-10T04:45:06;5.55;;;2.20;;
48100;SDS011;33878;47.442;18.916;2022-07-10T04:47:53;3.95;;;2.08;;
48100;SDS011;33878;47.442;18.916;2022-07-10T04:50:39;3.60;;;2.17;;
48100;SDS011;33878;47.442;18.916;2022-07-10T04:53:25;3.35;;;2.08;;
48100;SDS011;33878;47.442;18.916;2022-07-10T04:56:11;2.85;;;1.80;;
48100;SDS011;33878;47.442;18.916;2022-07-10T04:58:58;3.75;;;2.05;;
48100;SDS011;33878;47.442;18.916;2022-07-10T05:01:44;3.35;;;1.70;;
48100;SDS011;33878;47.442;18.916;2022-07-10T05:04:30;3.37;;;1.70;;
48100;SDS011;33878;47.442;18.916;2022-07-10T05:07:17;2.58;;;1.83;;
48100;SDS011;33878;47.442;18.916;2022-07-10T05:10:03;3.90;;;1.80;;
48100;SDS011;33878;47.442;18.916;2022-07-10T05:12:50;4.07;;;2.03;;
48100;SDS011;33878;47.442;18.916;2022-07-10T05:15:36;2.80;;;2.05;;
48100;SDS011;33878;47.442;18.916;2022-07-10T05:18:23;4.07;;;1.90;;
48100;SDS011;33878;47.442;18.916;2022-07-10T05:21:09;6.53;;;2.40;;
48100;SDS011;33878;47.442;18.916;2022-07-10T05:23:56;3.97;;;1.90;;
48100;SDS011;33878;47.442;18.916;2022-07-10T05:26:42;4.93;;;2.00;;
48100;SDS011;33878;47.442;18.916;2022-07-10T05:29:29;4.25;;;2.08;;
48100;SDS011;33878;47.442;18.916;2022-07-10T05:32:15;3.37;;;2.03;;
48100;SDS011;33878;47.442;18.916;2022-07-10T05:35:02;3.20;;;1.90;;
48100;SDS011;33878;47.442;18.916;2022-07-10T05:37:48;3.92;;;2.10;;
48100;SDS011;33878;47.442;18.916;2022-07-10T05:40:34;5.00;;;2.00;;
48100;SDS011;33878;47.442;18.916;2022-07-10T05:43:21;2.97;;;1.90;;
48100;SDS011;33878;47.442;18.916;2022-07-10T05:46:07;3.58;;;2.00;;
48100;SDS011;33878;47.442;18.916;2022-07-10T05:48:54;4.55;;;2.10;;
48100;SDS011;33878;47.442;18.916;2022-07-10T05:51:40;4.53;;;1.95;;
48100;SDS011;33878;47.442;18.916;2022-07-10T05:54:30;3.60;;;1.77;;
48100;SDS011;33878;47.442;18.916;2022-07-10T05:57:17;3.12;;;1.98;;
48100;SDS011;33878;47.442;18.916;2022-07-10T06:00:04;3.17;;;2.00;;
48100;SDS011;33878;47.442;18.916;2022-07-10T06:02:56;3.12;;;1.85;;
48100;SDS011;33878;47.442;18.916;2022-07-10T06:05:42;4.50;;;1.90;;
48100;SDS011;33878;47.442;18.916;2022-07-10T06:08:28;3.25;;;1.75;;
48100;SDS011;33878;47.442;18.916;2022-07-10T06:11:15;3.12;;;1.62;;
48100;SDS011;33878;47.442;18.916;2022-07-10T06:14:01;3.80;;;1.75;;
48100;SDS011;33878;47.442;18.916;2022-07-10T06:16:48;3.65;;;1.95;;
48100;SDS011;33878;47.442;18.916;2022-07-10T06:19:34;3.87;;;1.85;;
48100;SDS011;33878;47.442;18.916;2022-07-10T06:22:21;3.85;;;1.70;;
48100;SDS011;33878;47.442;18.916;2022-07-10T06:25:16;3.05;;;1.70;;
48100;SDS011;33878;47.442;18.916;2022-07-10T06:28:02;4.20;;;1.70;;
48100;SDS011;33878;47.442;18.916;2022-07-10T06:30:48;3.15;;;1.83;;
48100;SDS011;33878;47.442;18.916;2022-07-10T06:33:35;3.37;;;1.77;;
48100;SDS011;33878;47.442;18.916;2022-07-10T06:36:21;3.15;;;1.73;;
48100;SDS011;33878;47.442;18.916;2022-07-10T06:39:11;3.20;;;1.73;;
48100;SDS011;33878;47.442;18.916;2022-07-10T06:41:58;3.72;;;1.52;;
48100;SDS011;33878;47.442;18.916;2022-07-10T06:44:46;3.20;;;1.60;;
48100;SDS011;33878;47.442;18.916;2022-07-10T06:47:32;3.90;;;1.52;;
48100;SDS011;33878;47.442;18.916;2022-07-10T06:50:42;4.07;;;1.87;;
48100;SDS011;33878;47.442;18.916;2022-07-10T06:53:29;4.60;;;1.80;;
48100;SDS011;33878;47.442;18.916;2022-07-10T06:56:15;3.12;;;1.80;;
48100;SDS011;33878;47.442;18.916;2022-07-10T06:59:02;4.07;;;1.75;;
48100;SDS011;33878;47.442;18.916;2022-07-10T07:01:48;2.65;;;1.73;;
48100;SDS011;33878;47.442;18.916;2022-07-10T07:04:35;3.10;;;1.70;;
48100;SDS011;33878;47.442;18.916;2022-07-10T07:07:21;4.30;;;1.90;;
48100;SDS011;33878;47.442;18.916;2022-07-10T07:10:10;2.37;;;1.55;;
48100;SDS011;33878;47.442;18.916;2022-07-10T07:12:56;2.85;;;1.20;;
48100;SDS011;33878;47.442;18.916;2022-07-10T07:15:43;2.95;;;1.40;;
48100;SDS011;33878;47.442;18.916;2022-07-10T07:18:35;3.17;;;1.30;;
48100;SDS011;33878;47.442;18.916;2022-07-10T07:21:32;2.50;;;1.30;;
48100;SDS011;33878;47.442;18.916;2022-07-10T07:24:38;2.15;;;1.42;;
48100;SDS011;33878;47.442;18.916;2022-07-10T07:27:24;4.00;;;1.55;;
48100;SDS011;33878;47.442;18.916;2022-07-10T07:30:13;2.97;;;1.40;;
48100;SDS011;33878;47.442;18.916;2022-07-10T07:33:03;2.35;;;1.30;;
48100;SDS011;33878;47.442;18.916;2022-07-10T07:35:49;1.85;;;1.12;;
48100;SDS011;33878;47.442;18.916;2022-07-10T07:38:36;1.58;;;1.00;;
48100;SDS011;33878;47.442;18.916;2022-07-10T07:41:23;2.08;;;0.98;;
48100;SDS011;33878;47.442;18.916;2022-07-10T07:44:08;2.28;;;1.00;;
48100;SDS011;33878;47.442;18.916;2022-07-10T07:46:55;2.00;;;1.02;;
48100;SDS011;33878;47.442;18.916;2022-07-10T07:49:42;4.82;;;1.08;;
48100;SDS011;33878;47.442;18.916;2022-07-10T07:52:28;4.00;;;1.10;;
48100;SDS011;33878;47.442;18.916;2022-07-10T07:55:15;2.78;;;1.48;;
48100;SDS011;33878;47.442;18.916;2022-07-10T07:58:03;1.17;;;0.90;;
48100;SDS011;33878;47.442;18.916;2022-07-10T08:00:49;2.83;;;1.10;;
48100;SDS011;33878;47.442;18.916;2022-07-10T08:03:36;1.90;;;1.10;;
48100;SDS011;33878;47.442;18.916;2022-07-10T08:06:42;2.45;;;1.05;;
48100;SDS011;33878;47.442;18.916;2022-07-10T08:09:28;1.45;;;1.00;;
48100;SDS011;33878;47.442;18.916;2022-07-10T08:12:14;2.65;;;1.25;;
48100;SDS011;33878;47.442;18.916;2022-07-10T08:15:01;1.40;;;1.00;;
48100;SDS011;33878;47.442;18.916;2022-07-10T08:17:48;2.22;;;1.20;;
48100;SDS011;33878;47.442;18.916;2022-07-10T08:20:35;4.15;;;1.17;;
48100;SDS011;33878;47.442;18.916;2022-07-10T08:23:21;2.55;;;1.10;;
48100;SDS011;33878;47.442;18.916;2022-07-10T08:26:07;3.10;;;1.08;;
48100;SDS011;33878;47.442;18.916;2022-07-10T08:28:54;3.37;;;1.00;;
48100;SDS011;33878;47.442;18.916;2022-07-10T08:31:40;2.47;;;1.20;;
48100;SDS011;33878;47.442;18.916;2022-07-10T08:34:35;2.10;;;1.20;;
48100;SDS011;33878;47.442;18.916;2022-07-10T08:40:10;2.65;;;1.27;;
48100;SDS011;33878;47.442;18.916;2022-07-10T08:42:59;2.15;;;1.00;;
48100;SDS011;33878;47.442;18.916;2022-07-10T08:45:45;4.55;;;1.50;;
48100;SDS011;33878;47.442;18.916;2022-07-10T08:48:32;2.75;;;1.17;;
48100;SDS011;33878;47.442;18.916;2022-07-10T08:51:23;3.45;;;1.25;;
48100;SDS011;33878;47.442;18.916;2022-07-10T08:54:12;1.25;;;1.05;;
48100;SDS011;33878;47.442;18.916;2022-07-10T08:57:07;2.60;;;1.10;;
48100;SDS011;33878;47.442;18.916;2022-07-10T08:59:54;1.95;;;1.15;;
48100;SDS011;33878;47.442;18.916;2022-07-10T09:02:40;1.20;;;0.80;;
48100;SDS011;33878;47.442;18.916;2022-07-10T09:05:26;3.03;;;1.15;;
48100;SDS011;33878;47.442;18.916;2022-07-10T09:08:25;4.45;;;1.10;;
48100;SDS011;33878;47.442;18.916;2022-07-10T09:11:18;2.55;;;1.05;;
48100;SDS011;33878;47.442;18.916;2022-07-10T09:14:05;2.17;;;0.90;;
48100;SDS011;33878;47.442;18.916;2022-07-10T09:16:54;2.50;;;1.40;;
48100;SDS011;33878;47.442;18.916;2022-07-10T09:19:40;1.30;;;0.80;;
48100;SDS011;33878;47.442;18.916;2022-07-10T09:22:27;3.12;;;0.77;;
48100;SDS011;33878;47.442;18.916;2022-07-10T09:25:16;1.73;;;0.90;;
48100;SDS011;33878;47.442;18.916;2022-07-10T09:28:03;1.45;;;0.80;;
48100;SDS011;33878;47.442;18.916;2022-07-10T09:30:51;4.18;;;0.80;;
48100;SDS011;33878;47.442;18.916;2022-07-10T09:33:39;1.87;;;1.00;;
48100;SDS011;33878;47.442;18.916;2022-07-10T09:36:26;3.47;;;0.90;;
48100;SDS011;33878;47.442;18.916;2022-07-10T09:39:12;0.75;;;0.60;;
48100;SDS011;33878;47.442;18.916;2022-07-10T09:41:58;1.12;;;0.73;;
48100;SDS011;33878;47.442;18.916;2022-07-10T09:44:44;1.83;;;1.10;;
48100;SDS011;33878;47.442;18.916;2022-07-10T09:47:31;2.92;;;0.98;;
48100;SDS011;33878;47.442;18.916;2022-07-10T09:50:21;1.37;;;0.93;;
48100;SDS011;33878;47.442;18.916;2022-07-10T09:53:15;3.12;;;1.55;;
48100;SDS011;33878;47.442;18.916;2022-07-10T09:56:02;1.08;;;0.88;;
48100;SDS011;33878;47.442;18.916;2022-07-10T09:58:49;4.82;;;0.93;;
48100;SDS011;33878;47.442;18.916;2022-07-10T10:01:41;0.90;;;0.70;;
48100;SDS011;33878;47.442;18.916;2022-07-10T10:04:33;0.90;;;0.80;;
48100;SDS011;33878;47.442;18.916;2022-07-10T10:07:25;3.15;;;0.93;;
48100;SDS011;33878;47.442;18.916;2022-07-10T10:10:11;2.60;;;0.60;;
48100;SDS011;33878;47.442;18.916;2022-07-10T10:12:58;1.20;;;0.82;;
48100;SDS011;33878;47.442;18.916;2022-07-10T10:15:50;2.97;;;0.70;;
48100;SDS011;33878;47.442;18.916;2022-07-10T10:18:37;1.00;;;0.50;;
48100;SDS011;33878;47.442;18.916;2022-07-10T10:21:43;1.90;;;0.70;;
48100;SDS011;33878;47.442;18.916;2022-07-10T10:24:31;1.67;;;0.80;;
48100;SDS011;33878;47.442;18.916;2022-07-10T10:27:18;2.03;;;0.60;;
48100;SDS011;33878;47.442;18.916;2022-07-10T10:30:06;0.80;;;0.50;;
48100;SDS011;33878;47.442;18.916;2022-07-10T10:32:53;4.90;;;0.77;;
48100;SDS011;33878;47.442;18.916;2022-07-10T10:35:43;0.95;;;0.60;;
48100;SDS011;33878;47.442;18.916;2022-07-10T10:39:19;1.67;;;0.70;;
48100;SDS011;33878;47.442;18.916;2022-07-10T10:41:44;1.37;;;0.82;;
48100;SDS011;33878;47.442;18.916;2022-07-10T10:44:33;1.60;;;0.85;;
48100;SDS011;33878;47.442;18.916;2022-07-10T10:47:19;1.30;;;0.70;;
48100;SDS011;33878;47.442;18.916;2022-07-10T10:50:05;2.42;;;0.85;;
48100;SDS011;33878;47.442;18.916;2022-07-10T10:53:01;3.92;;;0.80;;
48100;SDS011;33878;47.442;18.916;2022-07-10T10:56:20;1.12;;;0.70;;
48100;SDS011;33878;47.442;18.916;2022-07-10T10:59:06;1.23;;;0.80;;
48100;SDS011;33878;47.442;18.916;2022-07-10T11:02:20;6.62;;;0.90;;
48100;SDS011;33878;47.442;18.916;2022-07-10T11:08:06;2.60;;;0.70;;
48100;SDS011;33878;47.442;18.916;2022-07-10T11:10:53;3.00;;;0.62;;
48100;SDS011;33878;47.442;18.916;2022-07-10T11:13:40;1.27;;;0.55;;
48100;SDS011;33878;47.442;18.916;2022-07-10T11:16:26;1.25;;;0.60;;
48100;SDS011;33878;47.442;18.916;2022-07-10T11:19:13;1.90;;;0.68;;
48100;SDS011;33878;47.442;18.916;2022-07-10T11:25:35;4.20;;;1.00;;
48100;SDS011;33878;47.442;18.916;2022-07-10T11:28:51;8.82;;;1.20;;
48100;SDS011;33878;47.442;18.916;2022-07-10T11:31:40;4.25;;;0.77;;
48100;SDS011;33878;47.442;18.916;2022-07-10T11:34:34;2.87;;;0.73;;
48100;SDS011;33878;47.442;18.916;2022-07-10T11:37:21;2.03;;;0.80;;
48100;SDS011;33878;47.442;18.916;2022-07-10T11:40:10;2.80;;;0.90;;
48100;SDS011;33878;47.442;18.916;2022-07-10T11:42:57;4.95;;;0.98;;
48100;SDS011;33878;47.442;18.916;2022-07-10T11:45:45;2.37;;;0.60;;
48100;SDS011;33878;47.442;18.916;2022-07-10T11:48:32;1.70;;;0.80;;
48100;SDS011;33878;47.442;18.916;2022-07-10T11:51:25;4.43;;;0.80;;
48100;SDS011;33878;47.442;18.916;2022-07-10T11:54:13;2.45;;;0.90;;
48100;SDS011;33878;47.442;18.916;2022-07-10T11:57:05;1.17;;;0.88;;
48100;SDS011;33878;47.442;18.916;2022-07-10T11:59:52;5.25;;;0.80;;
48100;SDS011;33878;47.442;18.916;2022-07-10T12:02:39;1.40;;;0.75;;
48100;SDS011;33878;47.442;18.916;2022-07-10T12:05:32;1.80;;;0.85;;
48100;SDS011;33878;47.442;18.916;2022-07-10T12:08:23;3.00;;;0.70;;
48100;SDS011;33878;47.442;18.916;2022-07-10T12:11:13;1.23;;;0.50;;
48100;SDS011;33878;47.442;18.916;2022-07-10T12:14:11;0.75;;;0.50;;
48100;SDS011;33878;47.442;18.916;2022-07-10T12:17:11;3.60;;;0.47;;
48100;SDS011;33878;47.442;18.916;2022-07-10T12:19:58;0.98;;;0.45;;
48100;SDS011;33878;47.442;18.916;2022-07-10T12:22:44;3.25;;;0.45;;
48100;SDS011;33878;47.442;18.916;2022-07-10T12:25:32;1.60;;;0.43;;
48100;SDS011;33878;47.442;18.916;2022-07-10T12:28:18;0.90;;;0.40;;
48100;SDS011;33878;47.442;18.916;2022-07-10T12:31:05;11.98;;;1.40;;
48100;SDS011;33878;47.442;18.916;2022-07-10T12:33:56;0.98;;;0.55;;
48100;SDS011;33878;47.442;18.916;2022-07-10T12:36:51;1.87;;;0.70;;
48100;SDS011;33878;47.442;18.916;2022-07-10T12:39:48;1.23;;;0.70;;
48100;SDS011;33878;47.442;18.916;2022-07-10T12:42:36;4.10;;;0.60;;
48100;SDS011;33878;47.442;18.916;2022-07-10T12:45:23;2.45;;;0.60;;
48100;SDS011;33878;47.442;18.916;2022-07-10T12:48:20;1.65;;;0.60;;
48100;SDS011;33878;47.442;18.916;2022-07-10T12:51:29;1.83;;;0.52;;
48100;SDS011;33878;47.442;18.916;2022-07-10T12:54:35;2.55;;;0.82;;
48100;SDS011;33878;47.442;18.916;2022-07-10T12:57:23;3.05;;;0.60;;
48100;SDS011;33878;47.442;18.916;2022-07-10T13:00:09;4.05;;;0.80;;
48100;SDS011;33878;47.442;18.916;2022-07-10T13:05:49;0.83;;;0.63;;
48100;SDS011;33878;47.442;18.916;2022-07-10T13:08:46;1.50;;;0.60;;
48100;SDS011;33878;47.442;18.916;2022-07-10T13:11:32;1.33;;;0.73;;
48100;SDS011;33878;47.442;18.916;2022-07-10T13:14:19;0.80;;;0.62;;
48100;SDS011;33878;47.442;18.916;2022-07-10T13:17:06;4.20;;;0.75;;
48100;SDS011;33878;47.442;18.916;2022-07-10T13:19:53;1.20;;;0.70;;
48100;SDS011;33878;47.442;18.916;2022-07-10T13:22:39;1.83;;;0.57;;
48100;SDS011;33878;47.442;18.916;2022-07-10T13:25:25;1.48;;;0.77;;
48100;SDS011;33878;47.442;18.916;2022-07-10T13:28:12;0.90;;;0.60;;
48100;SDS011;33878;47.442;18.916;2022-07-10T13:30:58;2.08;;;0.80;;
48100;SDS011;33878;47.442;18.916;2022-07-10T13:33:45;4.05;;;0.80;;
48100;SDS011;33878;47.442;18.916;2022-07-10T13:36:32;0.98;;;0.60;;
48100;SDS011;33878;47.442;18.916;2022-07-10T13:39:18;2.67;;;0.73;;
48100;SDS011;33878;47.442;18.916;2022-07-10T13:42:05;1.77;;;0.70;;
48100;SDS011;33878;47.442;18.916;2022-07-10T13:44:51;4.20;;;0.90;;
48100;SDS011;33878;47.442;18.916;2022-07-10T13:47:38;3.28;;;0.90;;
48100;SDS011;33878;47.442;18.916;2022-07-10T13:50:24;3.28;;;1.08;;
48100;SDS011;33878;47.442;18.916;2022-07-10T13:53:11;4.93;;;1.00;;
48100;SDS011;33878;47.442;18.916;2022-07-10T13:55:57;2.17;;;0.80;;
48100;SDS011;33878;47.442;18.916;2022-07-10T13:58:45;1.73;;;0.62;;
48100;SDS011;33878;47.442;18.916;2022-07-10T14:01:31;3.72;;;0.80;;
48100;SDS011;33878;47.442;18.916;2022-07-10T14:04:18;2.37;;;0.70;;
48100;SDS011;33878;47.442;18.916;2022-07-10T14:07:04;3.70;;;0.80;;
48100;SDS011;33878;47.442;18.916;2022-07-10T14:09:50;2.17;;;0.82;;
48100;SDS011;33878;47.442;18.916;2022-07-10T14:12:36;2.30;;;0.65;;
48100;SDS011;33878;47.442;18.916;2022-07-10T14:15:23;5.60;;;0.80;;
48100;SDS011;33878;47.442;18.916;2022-07-10T14:18:10;2.58;;;0.82;;
48100;SDS011;33878;47.442;18.916;2022-07-10T14:20:57;4.82;;;0.95;;
48100;SDS011;33878;47.442;18.916;2022-07-10T14:23:49;3.67;;;0.60;;
48100;SDS011;33878;47.442;18.916;2022-07-10T14:26:35;1.87;;;0.70;;
48100;SDS011;33878;47.442;18.916;2022-07-10T14:29:22;2.85;;;0.70;;
48100;SDS011;33878;47.442;18.916;2022-07-10T14:32:08;3.50;;;0.80;;
48100;SDS011;33878;47.442;18.916;2022-07-10T14:34:54;1.77;;;0.60;;
48100;SDS011;33878;47.442;18.916;2022-07-10T14:37:41;7.00;;;0.70;;
48100;SDS011;33878;47.442;18.916;2022-07-10T14:40:27;3.22;;;0.70;;
48100;SDS011;33878;47.442;18.916;2022-07-10T14:43:15;2.65;;;0.68;;
48100;SDS011;33878;47.442;18.916;2022-07-10T14:46:01;3.22;;;0.50;;
48100;SDS011;33878;47.442;18.916;2022-07-10T14:48:50;4.18;;;0.70;;
48100;SDS011;33878;47.442;18.916;2022-07-10T14:51:37;4.40;;;0.60;;
48100;SDS011;33878;47.442;18.916;2022-07-10T14:54:26;5.82;;;0.65;;
48100;SDS011;33878;47.442;18.916;2022-07-10T14:57:13;1.85;;;0.50;;
48100;SDS011;33878;47.442;18.916;2022-07-10T14:59:59;2.03;;;0.60;;
48100;SDS011;33878;47.442;18.916;2022-07-10T15:02:45;3.87;;;0.60;;
48100;SDS011;33878;47.442;18.916;2022-07-10T15:05:32;2.45;;;0.60;;
48100;SDS011;33878;47.442;18.916;2022-07-10T15:08:19;2.58;;;0.70;;
48100;SDS011;33878;47.442;18.916;2022-07-10T15:11:06;3.92;;;0.68;;
48100;SDS011;33878;47.442;18.916;2022-07-10T15:13:53;3.62;;;0.43;;
48100;SDS011;33878;47.442;18.916;2022-07-10T15:16:45;2.72;;;0.47;;
48100;SDS011;33878;47.442;18.916;2022-07-10T15:19:31;2.15;;;0.50;;
48100;SDS011;33878;47.442;18.916;2022-07-10T15:22:18;3.95;;;0.60;;
48100;SDS011;33878;47.442;18.916;2022-07-10T15:25:04;3.08;;;0.40;;
48100;SDS011;33878;47.442;18.916;2022-07-10T15:27:51;4.82;;;0.52;;
48100;SDS011;33878;47.442;18.916;2022-07-10T15:30:38;3.72;;;0.60;;
48100;SDS011;33878;47.442;18.916;2022-07-10T15:33:25;3.62;;;0.70;;
48100;SDS011;33878;47.442;18.916;2022-07-10T15:36:12;3.50;;;0.50;;
48100;SDS011;33878;47.442;18.916;2022-07-10T15:38:59;3.97;;;0.40;;
48100;SDS011;33878;47.442;18.916;2022-07-10T15:41:45;2.25;;;0.50;;
48100;SDS011;33878;47.442;18.916;2022-07-10T15:44:32;4.70;;;0.50;;
48100;SDS011;33878;47.442;18.916;2022-07-10T15:47:19;3.80;;;0.57;;
48100;SDS011;33878;47.442;18.916;2022-07-10T15:50:05;4.20;;;0.88;;
48100;SDS011;33878;47.442;18.916;2022-07-10T15:52:52;1.98;;;0.68;;
48100;SDS011;33878;47.442;18.916;2022-07-10T15:55:38;4.32;;;0.57;;
48100;SDS011;33878;47.442;18.916;2022-07-10T15:58:25;4.90;;;0.50;;
48100;SDS011;33878;47.442;18.916;2022-07-10T16:01:11;6.20;;;0.47;;
48100;SDS011;33878;47.442;18.916;2022-07-10T16:03:59;3.12;;;0.40;;
48100;SDS011;33878;47.442;18.916;2022-07-10T16:06:45;0.75;;;0.40;;
48100;SDS011;33878;47.442;18.916;2022-07-10T16:09:32;2.37;;;0.50;;
48100;SDS011;33878;47.442;18.916;2022-07-10T16:12:19;3.55;;;0.62;;
48100;SDS011;33878;47.442;18.916;2022-07-10T16:15:05;2.22;;;0.52;;
48100;SDS011;33878;47.442;18.916;2022-07-10T16:17:57;1.37;;;0.43;;
48100;SDS011;33878;47.442;18.916;2022-07-10T16:20:43;4.07;;;0.52;;
48100;SDS011;33878;47.442;18.916;2022-07-10T16:23:30;3.00;;;0.77;;
48100;SDS011;33878;47.442;18.916;2022-07-10T16:26:17;2.28;;;0.40;;
48100;SDS011;33878;47.442;18.916;2022-07-10T16:29:03;2.35;;;0.30;;
48100;SDS011;33878;47.442;18.916;2022-07-10T16:31:51;2.85;;;0.40;;
48100;SDS011;33878;47.442;18.916;2022-07-10T16:34:37;1.27;;;0.40;;
48100;SDS011;33878;47.442;18.916;2022-07-10T16:37:24;1.95;;;0.43;;
48100;SDS011;33878;47.442;18.916;2022-07-10T16:40:10;3.50;;;0.50;;
48100;SDS011;33878;47.442;18.916;2022-07-10T16:42:56;4.53;;;0.50;;
48100;SDS011;33878;47.442;18.916;2022-07-10T16:45:43;1.55;;;0.52;;
48100;SDS011;33878;47.442;18.916;2022-07-10T16:48:33;2.17;;;0.50;;